createdAt,value
2023-02-27T00:00:22.110Z,63.74
2023-02-27T00:02:51.972Z,62.84
2023-02-27T00:05:19.868Z,63.25
2023-02-27T00:07:46.750Z,63.81
2023-02-27T00:10:14.546Z,63.02
2023-02-27T00:12:42.376Z,64.44
2023-02-27T00:15:14.680Z,64.45
2023-02-27T00:17:42.784Z,64.28
2023-02-27T00:20:12.467Z,64.70
2023-02-27T00:22:42.802Z,63.69
2023-02-27T00:25:10.604Z,64.00
2023-02-27T00:27:37.730Z,63.47
2023-02-27T00:30:06.140Z,64.69
2023-02-27T00:32:33.592Z,64.54
2023-02-27T00:35:01.299Z,63.92
2023-02-27T00:37:28.096Z,64.76
2023-02-27T00:39:55.141Z,64.72
2023-02-27T00:42:22.335Z,64.64
2023-02-27T00:44:49.210Z,64.77
2023-02-27T00:47:16.153Z,64.04
2023-02-27T00:49:43.500Z,64.87
2023-02-27T00:52:11.048Z,64.34
2023-02-27T00:54:37.969Z,64.99
2023-02-27T00:57:05.033Z,64.44
2023-02-27T00:59:31.872Z,63.78
2023-02-27T01:01:58.720Z,64.01
2023-02-27T01:04:28.330Z,63.74
2023-02-27T01:06:55.320Z,65.06
2023-02-27T01:09:22.264Z,64.67
2023-02-27T01:11:52.283Z,64.11
2023-02-27T01:14:19.549Z,64.16
2023-02-27T01:16:46.390Z,62.84
2023-02-27T01:19:15.845Z,64.00
2023-02-27T01:21:44.245Z,64.21
2023-02-27T01:24:12.565Z,63.94
2023-02-27T01:26:40.732Z,63.73
2023-02-27T01:29:08.021Z,63.41
2023-02-27T01:31:35.184Z,64.18
2023-02-27T01:34:02.196Z,63.71
2023-02-27T01:36:29.166Z,63.12
2023-02-27T01:38:56.000Z,63.31
2023-02-27T01:41:22.886Z,63.63
2023-02-27T01:43:59.086Z,62.71
2023-02-27T01:46:27.221Z,61.96
2023-02-27T01:48:59.973Z,62.25
2023-02-27T01:51:31.682Z,62.45
2023-02-27T01:53:59.135Z,62.58
2023-02-27T01:56:29.087Z,62.96
2023-02-27T01:59:01.816Z,62.44
2023-02-27T02:01:30.261Z,62.36
2023-02-27T02:04:12.089Z,62.72
2023-02-27T02:06:45.066Z,63.54
2023-02-27T02:09:13.970Z,63.67
2023-02-27T02:11:42.167Z,64.06
2023-02-27T02:14:10.999Z,63.88
2023-02-27T02:16:55.222Z,63.45
2023-02-27T02:19:25.316Z,63.80
2023-02-27T02:22:29.287Z,63.78
2023-02-27T02:25:37.340Z,64.13
2023-02-27T02:28:22.713Z,64.06
2023-02-27T02:31:09.467Z,63.55
2023-02-27T02:34:07.980Z,64.11
2023-02-27T02:36:56.207Z,64.85
2023-02-27T02:39:35.700Z,63.65
2023-02-27T02:42:13.015Z,63.40
2023-02-27T02:44:48.756Z,64.37
2023-02-27T02:47:31.066Z,63.66
2023-02-27T02:50:37.521Z,64.35
2023-02-27T02:53:36.568Z,64.36
2023-02-27T02:56:18.099Z,64.59
2023-02-27T02:58:59.851Z,63.65
2023-02-27T03:02:07.442Z,65.28
2023-02-27T03:04:39.646Z,64.72
2023-02-27T03:07:27.490Z,65.86
2023-02-27T03:10:08.339Z,65.58
2023-02-27T03:12:39.570Z,65.44
2023-02-27T03:15:18.386Z,65.61
2023-02-27T03:17:48.567Z,65.08
2023-02-27T03:20:43.644Z,64.78
2023-02-27T03:23:19.960Z,66.38
2023-02-27T03:25:50.730Z,65.93
2023-02-27T03:28:23.751Z,67.15
2023-02-27T03:31:01.736Z,65.45
2023-02-27T03:33:35.211Z,64.51
2023-02-27T03:36:13.166Z,65.81
2023-02-27T03:39:00.825Z,66.17
2023-02-27T03:41:52.434Z,66.86
2023-02-27T03:45:01.367Z,66.49
2023-02-27T03:47:29.132Z,67.28
2023-02-27T03:49:57.014Z,67.04
2023-02-27T03:52:26.260Z,67.50
2023-02-27T03:55:02.016Z,67.38
2023-02-27T03:57:30.826Z,67.73
2023-02-27T03:59:59.131Z,66.68
2023-02-27T04:02:27.465Z,66.12
2023-02-27T04:04:55.391Z,66.96
2023-02-27T04:08:14.355Z,66.69
2023-02-27T04:10:56.023Z,66.04
2023-02-27T04:13:28.709Z,66.11
2023-02-27T04:16:20.509Z,67.17
2023-02-27T04:19:11.632Z,67.63
2023-02-27T04:22:04.560Z,66.87
2023-02-27T04:24:37.645Z,66.52
2023-02-27T04:27:30.672Z,66.52
2023-02-27T04:30:25.927Z,67.16
2023-02-27T04:32:56.760Z,66.85
2023-02-27T04:35:42.910Z,66.56
2023-02-27T04:38:16.168Z,66.52
2023-02-27T04:40:49.609Z,67.40
2023-02-27T04:43:18.185Z,67.15
2023-02-27T04:45:47.105Z,68.54
2023-02-27T04:51:29.434Z,68.86
2023-02-27T04:54:06.434Z,67.64
2023-02-27T04:56:41.406Z,68.54
2023-02-27T04:59:15.079Z,68.16
2023-02-27T05:01:47.951Z,68.47
2023-02-27T05:04:19.239Z,67.93
2023-02-27T05:06:48.964Z,67.92
2023-02-27T05:09:38.603Z,67.51
2023-02-27T05:12:39.062Z,67.74
2023-02-27T05:15:13.573Z,67.06
2023-02-27T05:17:40.401Z,67.50
2023-02-27T05:20:09.104Z,67.97
2023-02-27T05:22:59.855Z,68.62
2023-02-27T05:25:49.550Z,67.84
2023-02-27T05:28:42.638Z,67.54
2023-02-27T05:31:18.458Z,66.81
2023-02-27T05:33:57.008Z,66.95
2023-02-27T05:37:00.338Z,66.73
2023-02-27T05:39:31.685Z,67.07
2023-02-27T05:42:05.521Z,66.53
2023-02-27T05:44:37.550Z,66.11
2023-02-27T05:47:16.308Z,66.17
2023-02-27T05:49:47.794Z,65.63
2023-02-27T05:52:19.620Z,65.43
2023-02-27T05:55:05.147Z,65.29
2023-02-27T05:58:01.187Z,65.89
2023-02-27T06:00:39.618Z,65.24
2023-02-27T06:03:07.045Z,66.33
2023-02-27T06:05:37.233Z,67.04
2023-02-27T06:08:04.134Z,66.70
2023-02-27T06:10:31.244Z,66.67
2023-02-27T06:12:58.091Z,65.87
2023-02-27T06:15:25.006Z,66.31
2023-02-27T06:17:51.915Z,65.33
2023-02-27T06:20:18.936Z,65.33
2023-02-27T06:22:46.079Z,65.54
2023-02-27T06:25:13.333Z,66.53
2023-02-27T06:27:40.351Z,66.28
2023-02-27T06:30:07.681Z,66.51
2023-02-27T06:32:34.789Z,66.29
2023-02-27T06:35:03.181Z,66.42
2023-02-27T06:37:30.006Z,66.09
2023-02-27T06:39:56.902Z,66.29
2023-02-27T06:42:24.005Z,65.18
2023-02-27T06:44:50.787Z,65.91
2023-02-27T06:47:18.161Z,66.50
2023-02-27T06:49:45.041Z,66.02
2023-02-27T06:52:11.887Z,65.93
2023-02-27T06:54:38.846Z,66.08
2023-02-27T06:57:05.715Z,66.73
2023-02-27T06:59:32.628Z,66.06
2023-02-27T07:02:00.674Z,65.60
2023-02-27T07:04:27.655Z,66.04
2023-02-27T07:07:35.189Z,66.74
2023-02-27T07:09:41.654Z,66.04
2023-02-27T07:12:08.886Z,65.04
2023-02-27T07:14:35.772Z,63.37
2023-02-27T07:17:06.194Z,63.75
2023-02-27T07:19:36.011Z,62.96
2023-02-27T07:22:03.889Z,62.38
2023-02-27T07:24:30.830Z,61.94
2023-02-27T07:26:57.818Z,61.86
2023-02-27T07:29:24.653Z,61.49
2023-02-27T07:31:51.589Z,61.23
2023-02-27T07:34:18.503Z,62.37
2023-02-27T07:36:45.404Z,61.16
2023-02-27T07:39:13.407Z,60.91
2023-02-27T07:41:40.549Z,59.86
2023-02-27T07:44:08.723Z,59.55
2023-02-27T07:46:36.247Z,58.87
2023-02-27T07:49:03.241Z,58.47
2023-02-27T07:51:30.119Z,56.79
2023-02-27T07:53:58.664Z,56.31
2023-02-27T07:56:28.841Z,55.45
2023-02-27T07:58:56.032Z,54.85
2023-02-27T08:01:23.078Z,53.71
2023-02-27T08:03:49.913Z,54.51
2023-02-27T08:06:17.019Z,52.76
2023-02-27T08:08:43.992Z,52.48
2023-02-27T08:11:11.490Z,53.20
2023-02-27T08:16:25.599Z,53.61
2023-02-27T08:18:52.689Z,53.82
2023-02-27T08:21:19.551Z,52.44
2023-02-27T08:23:46.350Z,52.63
2023-02-27T08:26:13.670Z,52.96
2023-02-27T08:28:41.317Z,53.25
2023-02-27T08:31:08.213Z,52.16
2023-02-27T08:33:35.839Z,52.34
2023-02-27T08:36:02.831Z,51.37
2023-02-27T08:38:29.668Z,51.35
2023-02-27T08:40:56.915Z,50.98
2023-02-27T08:43:24.064Z,50.88
2023-02-27T08:45:51.818Z,50.54
2023-02-27T08:48:18.792Z,50.89
2023-02-27T08:50:46.868Z,50.35
2023-02-27T08:53:14.216Z,49.79
2023-02-27T08:55:41.279Z,49.39
2023-02-27T08:58:09.075Z,49.74
2023-02-27T09:00:36.245Z,50.97
2023-02-27T09:03:03.183Z,50.12
2023-02-27T09:05:30.094Z,49.42
2023-02-27T09:07:57.010Z,49.88
2023-02-27T09:10:24.069Z,47.28
2023-02-27T09:12:50.892Z,45.61
2023-02-27T09:15:17.793Z,44.61
2023-02-27T09:17:44.725Z,43.38
2023-02-27T09:20:12.452Z,42.03
2023-02-27T09:22:40.609Z,41.56
2023-02-27T09:25:07.802Z,41.32
2023-02-27T09:27:35.437Z,40.76
2023-02-27T09:30:02.379Z,39.32
2023-02-27T09:32:29.410Z,38.89
2023-02-27T09:34:56.363Z,37.99
2023-02-27T09:37:25.092Z,38.48
2023-02-27T09:39:51.995Z,38.75
2023-02-27T09:42:26.288Z,37.91
2023-02-27T09:44:57.862Z,38.50
2023-02-27T09:47:35.624Z,38.02
2023-02-27T09:50:24.560Z,37.79
2023-02-27T09:52:51.461Z,37.31
2023-02-27T09:55:21.693Z,37.55
2023-02-27T09:58:01.565Z,37.04
2023-02-27T10:00:44.497Z,37.72
2023-02-27T10:03:23.054Z,37.79
2023-02-27T10:05:55.828Z,38.52
2023-02-27T10:08:34.104Z,37.84
2023-02-27T10:11:05.630Z,38.52
2023-02-27T10:13:38.505Z,38.46
2023-02-27T10:16:09.844Z,39.30
2023-02-27T10:18:58.337Z,39.35
2023-02-27T10:21:34.467Z,39.96
2023-02-27T10:24:21.713Z,40.01
2023-02-27T10:26:52.888Z,40.41
2023-02-27T10:29:25.485Z,40.28
2023-02-27T10:32:00.508Z,40.36
2023-02-27T10:34:30.411Z,40.04
2023-02-27T10:37:00.783Z,41.12
2023-02-27T10:39:29.647Z,40.51
2023-02-27T10:42:05.556Z,41.11
2023-02-27T10:44:34.454Z,41.86
2023-02-27T10:47:01.363Z,41.51
2023-02-27T10:49:32.505Z,41.39
2023-02-27T10:52:10.936Z,41.14
2023-02-27T10:54:39.878Z,39.68
2023-02-27T10:57:28.585Z,39.31
2023-02-27T11:00:04.126Z,39.08
2023-02-27T11:02:40.593Z,38.57
2023-02-27T11:05:50.390Z,39.77
2023-02-27T11:08:23.691Z,39.67
2023-02-27T11:11:11.140Z,39.95
2023-02-27T11:13:40.951Z,40.98
2023-02-27T11:16:20.522Z,40.61
2023-02-27T11:18:52.652Z,40.18
2023-02-27T11:21:29.219Z,40.56
2023-02-27T11:23:59.762Z,41.65
2023-02-27T11:26:34.237Z,41.39
2023-02-27T11:29:11.761Z,43.03
2023-02-27T11:31:40.040Z,42.68
2023-02-27T11:34:08.420Z,42.72
2023-02-27T11:36:45.123Z,42.02
2023-02-27T11:39:50.076Z,41.84
2023-02-27T11:42:21.902Z,42.15
2023-02-27T11:46:05.117Z,41.74
2023-02-27T11:48:18.717Z,41.73
2023-02-27T11:51:16.278Z,42.33
2023-02-27T11:53:59.953Z,41.60
2023-02-27T11:56:36.067Z,41.21
2023-02-27T11:59:32.123Z,41.53
2023-02-27T12:02:15.506Z,41.52
2023-02-27T12:04:54.638Z,40.93
2023-02-27T12:07:32.520Z,40.94
2023-02-27T12:10:06.069Z,42.59
2023-02-27T12:13:04.284Z,41.05
2023-02-27T12:15:40.310Z,41.62
2023-02-27T12:18:29.010Z,41.85
2023-02-27T12:21:06.085Z,41.53
2023-02-27T12:24:05.209Z,42.09
2023-02-27T12:26:37.374Z,42.50
2023-02-27T12:29:15.938Z,41.07
2023-02-27T12:31:50.533Z,41.62
2023-02-27T12:34:43.258Z,42.49
2023-02-27T12:37:13.826Z,41.88
2023-02-27T12:39:44.281Z,40.89
2023-02-27T12:42:40.503Z,40.82
2023-02-27T12:45:53.419Z,41.30
2023-02-27T12:48:55.311Z,42.24
2023-02-27T12:51:49.538Z,42.64
2023-02-27T12:54:37.755Z,43.12
2023-02-27T12:57:25.778Z,42.97
2023-02-27T12:59:56.868Z,42.38
2023-02-27T13:02:35.996Z,43.24
2023-02-27T13:05:32.432Z,39.29
2023-02-27T13:08:14.968Z,41.45
2023-02-27T13:10:49.296Z,40.81
2023-02-27T13:13:27.150Z,41.82
2023-02-27T13:16:00.707Z,42.31
2023-02-27T13:18:45.724Z,39.87
2023-02-27T13:21:21.191Z,40.45
2023-02-27T13:24:12.432Z,38.71
2023-02-27T13:26:47.466Z,39.53
2023-02-27T13:29:17.262Z,39.26
2023-02-27T13:31:53.567Z,39.30
2023-02-27T13:34:28.623Z,37.17
2023-02-27T13:37:02.850Z,36.16
2023-02-27T13:39:48.934Z,35.00
2023-02-27T13:42:28.949Z,35.03
2023-02-27T13:45:26.007Z,35.71
2023-02-27T13:47:52.859Z,36.41
2023-02-27T13:50:23.149Z,36.39
2023-02-27T13:52:50.272Z,35.62
2023-02-27T13:55:43.216Z,36.42
2023-02-27T13:58:18.151Z,36.80
2023-02-27T14:00:55.567Z,37.41
2023-02-27T14:03:26.673Z,37.74
2023-02-27T14:05:58.460Z,38.43
2023-02-27T14:08:30.329Z,39.24
2023-02-27T14:11:02.858Z,39.10
2023-02-27T14:13:52.247Z,39.46
2023-02-27T14:16:37.758Z,40.13
2023-02-27T14:19:19.707Z,40.02
2023-02-27T14:22:21.808Z,40.69
2023-02-27T14:25:06.535Z,41.27
2023-02-27T14:27:44.801Z,41.72
2023-02-27T14:30:40.872Z,40.92
2023-02-27T14:33:24.116Z,40.54
2023-02-27T14:36:08.004Z,41.61
2023-02-27T14:38:35.852Z,42.06
2023-02-27T14:41:39.738Z,41.82
2023-02-27T14:44:19.140Z,42.12
2023-02-27T14:46:46.355Z,42.31
2023-02-27T14:49:39.636Z,42.33
2023-02-27T14:52:29.785Z,42.10
2023-02-27T14:55:30.031Z,41.86
2023-02-27T14:58:17.751Z,42.41
2023-02-27T15:01:10.994Z,42.04
2023-02-27T15:03:44.177Z,42.39
2023-02-27T15:06:18.696Z,42.24
2023-02-27T15:08:51.077Z,41.46
2023-02-27T15:11:22.203Z,42.37
2023-02-27T15:13:57.610Z,42.59
2023-02-27T15:16:24.517Z,42.38
2023-02-27T15:18:54.445Z,42.53
2023-02-27T15:21:24.684Z,43.34
2023-02-27T15:24:35.243Z,43.13
2023-02-27T15:27:16.510Z,44.13
2023-02-27T15:30:00.429Z,44.78
2023-02-27T15:32:42.845Z,44.73
2023-02-27T15:35:20.080Z,45.23
2023-02-27T15:37:52.796Z,45.77
2023-02-27T15:40:29.987Z,45.21
2023-02-27T15:42:58.361Z,46.30
2023-02-27T15:45:31.883Z,46.35
2023-02-27T15:47:59.346Z,46.71
2023-02-27T15:50:34.105Z,47.37
2023-02-27T15:53:22.485Z,47.55
2023-02-27T15:55:56.053Z,48.26
2023-02-27T15:58:39.002Z,46.75
2023-02-27T16:01:23.107Z,47.82
2023-02-27T16:03:54.452Z,48.62
2023-02-27T16:06:27.726Z,48.27
2023-02-27T16:09:01.014Z,48.76
2023-02-27T16:11:33.549Z,49.25
2023-02-27T16:14:01.072Z,49.97
2023-02-27T16:16:31.828Z,49.97
2023-02-27T16:19:02.725Z,49.64
2023-02-27T16:21:31.389Z,49.34
2023-02-27T16:24:21.953Z,49.62
2023-02-27T16:26:53.231Z,50.70
2023-02-27T16:29:22.736Z,50.36
2023-02-27T16:31:53.862Z,50.31
2023-02-27T16:34:45.806Z,50.26
2023-02-27T16:37:32.066Z,49.77
2023-02-27T16:39:58.968Z,50.92
2023-02-27T16:42:25.819Z,51.14
2023-02-27T16:44:52.689Z,50.93
2023-02-27T16:47:19.550Z,52.05
2023-02-27T16:49:47.493Z,52.04
2023-02-27T16:52:14.289Z,52.19
2023-02-27T16:54:41.129Z,51.56
2023-02-27T16:57:09.895Z,52.14
2023-02-27T16:59:42.068Z,51.72
2023-02-27T17:02:15.124Z,51.86
2023-02-27T17:04:48.050Z,52.11
2023-02-27T17:07:17.110Z,52.59
2023-02-27T17:09:45.573Z,52.13
2023-02-27T17:12:13.835Z,52.54
2023-02-27T17:14:40.611Z,52.85
2023-02-27T17:17:07.588Z,53.10
2023-02-27T17:19:34.671Z,53.98
2023-02-27T17:22:01.502Z,53.98
2023-02-27T17:24:28.409Z,54.75
2023-02-27T17:26:55.768Z,55.38
2023-02-27T17:29:23.004Z,54.90
2023-02-27T17:31:50.432Z,55.21
2023-02-27T17:34:17.621Z,55.07
2023-02-27T17:36:44.623Z,55.29
2023-02-27T17:39:14.238Z,55.14
2023-02-27T17:41:42.912Z,55.58
2023-02-27T17:44:11.653Z,55.17
2023-02-27T17:46:39.697Z,55.18
2023-02-27T17:49:07.457Z,56.30
2023-02-27T17:51:34.336Z,55.54
2023-02-27T17:54:03.158Z,55.61
2023-02-27T17:56:30.764Z,56.61
2023-02-27T17:58:58.550Z,56.44
2023-02-27T18:01:27.030Z,57.36
2023-02-27T18:03:54.917Z,56.95
2023-02-27T18:06:23.244Z,57.03
2023-02-27T18:08:50.530Z,56.85
2023-02-27T18:11:19.899Z,58.01
2023-02-27T18:13:47.641Z,57.04
2023-02-27T18:16:14.945Z,57.14
2023-02-27T18:18:43.255Z,57.98
2023-02-27T18:21:22.967Z,56.87
2023-02-27T18:23:51.734Z,57.97
2023-02-27T18:26:29.925Z,57.64
2023-02-27T18:29:03.512Z,57.80
2023-02-27T18:31:33.384Z,57.90
2023-02-27T18:34:01.266Z,57.34
2023-02-27T18:36:29.934Z,57.19
2023-02-27T18:38:57.735Z,57.13
2023-02-27T18:41:25.499Z,57.61
2023-02-27T18:43:52.552Z,58.00
2023-02-27T18:46:19.745Z,58.39
2023-02-27T18:48:47.422Z,58.15
2023-02-27T18:51:16.491Z,57.34
2023-02-27T18:53:45.997Z,57.82
2023-02-27T18:56:14.388Z,57.37
2023-02-27T18:58:41.209Z,57.81
2023-02-27T19:01:08.804Z,57.74
2023-02-27T19:03:36.293Z,57.99
2023-02-27T19:06:03.558Z,57.94
2023-02-27T19:08:30.593Z,57.91
2023-02-27T19:10:58.628Z,57.97
2023-02-27T19:13:26.100Z,58.08
2023-02-27T19:15:53.999Z,58.49
2023-02-27T19:18:20.873Z,57.75
2023-02-27T19:20:48.120Z,57.88
2023-02-27T19:23:14.933Z,57.79
2023-02-27T19:25:42.154Z,58.13
2023-02-27T19:28:11.180Z,58.52
2023-02-27T19:30:40.796Z,57.86
2023-02-27T19:33:07.594Z,58.43
2023-02-27T19:35:34.440Z,57.58
2023-02-27T19:38:01.364Z,57.57
2023-02-27T19:40:28.490Z,58.26
2023-02-27T19:42:55.684Z,58.34
2023-02-27T19:45:23.450Z,58.70
2023-02-27T19:47:50.591Z,58.18
2023-02-27T19:50:17.896Z,58.38
2023-02-27T19:52:44.891Z,59.55
2023-02-27T19:55:11.929Z,58.45
2023-02-27T19:57:38.886Z,58.23
2023-02-27T20:00:07.241Z,59.39
2023-02-27T20:02:42.441Z,60.01
2023-02-27T20:05:12.128Z,59.47
2023-02-27T20:07:40.625Z,59.92
2023-02-27T20:10:07.692Z,59.62
2023-02-27T20:12:34.794Z,60.72
2023-02-27T20:15:08.714Z,59.97
2023-02-27T20:17:35.713Z,59.50
2023-02-27T20:20:05.097Z,60.30
2023-02-27T20:22:33.794Z,59.22
2023-02-27T20:25:00.848Z,59.78
2023-02-27T20:27:28.414Z,59.43
2023-02-27T20:29:57.464Z,59.96
2023-02-27T20:32:25.336Z,60.21
2023-02-27T20:34:54.754Z,60.33
2023-02-27T20:37:22.984Z,59.14
2023-02-27T20:39:50.206Z,59.12
2023-02-27T20:42:17.063Z,59.98
2023-02-27T20:44:43.954Z,59.68
2023-02-27T20:47:11.067Z,59.14
2023-02-27T20:49:38.690Z,59.74
2023-02-27T20:52:05.561Z,59.48
2023-02-27T20:54:32.439Z,59.65
2023-02-27T20:56:59.247Z,59.89
2023-02-27T20:59:26.300Z,59.38
2023-02-27T21:01:54.276Z,60.23
2023-02-27T21:04:42.541Z,59.82
2023-02-27T21:07:14.554Z,60.01
2023-02-27T21:09:41.850Z,60.16
2023-02-27T21:12:09.702Z,59.54
2023-02-27T21:14:37.477Z,60.29
2023-02-27T21:17:05.464Z,59.68
2023-02-27T21:19:32.390Z,59.37
2023-02-27T21:21:59.185Z,60.64
2023-02-27T21:24:26.194Z,60.24
2023-02-27T21:26:53.178Z,60.04
2023-02-27T21:29:21.392Z,60.65
2023-02-27T21:31:49.972Z,60.25
2023-02-27T21:34:21.018Z,60.41
2023-02-27T21:36:48.602Z,59.99
2023-02-27T21:39:21.433Z,60.31
2023-02-27T21:41:49.261Z,60.60
2023-02-27T21:44:18.607Z,60.05
2023-02-27T21:46:45.895Z,59.91
2023-02-27T21:49:27.713Z,60.27
2023-02-27T21:51:55.128Z,60.88
2023-02-27T21:54:22.097Z,60.53
2023-02-27T21:56:49.619Z,60.77
2023-02-27T21:59:18.973Z,61.61
2023-02-27T22:01:47.629Z,60.77
2023-02-27T22:04:16.250Z,61.45
2023-02-27T22:06:43.517Z,61.97
2023-02-27T22:09:10.408Z,62.60
2023-02-27T22:11:37.338Z,63.61
2023-02-27T22:14:06.111Z,62.70
2023-02-27T22:16:34.364Z,63.45
2023-02-27T22:19:07.594Z,63.94
2023-02-27T22:21:35.971Z,64.32
2023-02-27T22:24:03.690Z,65.63
2023-02-27T22:26:32.240Z,67.05
2023-02-27T22:29:00.206Z,68.10
2023-02-27T22:31:30.769Z,69.47
2023-02-27T22:34:03.979Z,69.25
2023-02-27T22:36:32.513Z,70.63
2023-02-27T22:39:00.032Z,70.05
2023-02-27T22:41:31.043Z,70.72
2023-02-27T22:43:59.869Z,71.05
2023-02-27T22:46:32.910Z,71.27
2023-02-27T22:49:10.175Z,71.85
2023-02-27T22:51:37.883Z,71.77
2023-02-27T22:54:06.414Z,72.24
2023-02-27T22:56:34.416Z,72.26
2023-02-27T22:59:01.356Z,71.80
2023-02-27T23:01:31.285Z,72.66
2023-02-27T23:04:01.197Z,71.71
2023-02-27T23:06:33.877Z,72.49
2023-02-27T23:09:02.345Z,72.48
2023-02-27T23:11:29.566Z,73.03
2023-02-27T23:13:56.706Z,72.77
2023-02-27T23:16:25.101Z,73.61
2023-02-27T23:18:57.313Z,73.40
2023-02-27T23:21:35.941Z,74.24
2023-02-27T23:24:15.561Z,73.24
2023-02-27T23:26:46.615Z,74.65
2023-02-27T23:29:13.767Z,73.98
2023-02-27T23:31:42.321Z,74.79
2023-02-27T23:34:09.570Z,74.51
2023-02-27T23:36:38.182Z,75.07
2023-02-27T23:39:06.500Z,74.83
2023-02-27T23:41:34.090Z,74.88
2023-02-27T23:44:19.700Z,75.08
2023-02-27T23:46:46.627Z,75.26
2023-02-27T23:49:13.466Z,75.19
2023-02-27T23:51:40.321Z,76.90
2023-02-27T23:54:07.264Z,76.32
2023-02-27T23:56:34.240Z,76.29
2023-02-27T23:59:06.042Z,76.43
